createdAt,value
2023-10-31T00:01:24.843Z,62.33
2023-10-31T00:03:52.191Z,62.45
2023-10-31T00:06:19.433Z,62.91
2023-10-31T00:08:46.529Z,62.80
2023-10-31T00:11:13.641Z,62.80
2023-10-31T00:13:40.851Z,63.00
2023-10-31T00:16:08.534Z,62.87
2023-10-31T00:18:35.834Z,62.99
2023-10-31T00:21:03.185Z,63.11
2023-10-31T00:23:30.291Z,62.96
2023-10-31T00:25:57.541Z,62.96
2023-10-31T00:28:24.998Z,62.83
2023-10-31T00:30:52.188Z,63.25
2023-10-31T00:33:19.339Z,63.33
2023-10-31T00:35:46.707Z,63.09
2023-10-31T00:38:13.865Z,62.77
2023-10-31T00:40:40.986Z,62.70
2023-10-31T00:43:08.114Z,62.47
2023-10-31T00:45:35.399Z,62.38
2023-10-31T00:48:02.581Z,62.40
2023-10-31T00:50:30.168Z,62.33
2023-10-31T00:52:57.446Z,62.92
2023-10-31T00:55:24.667Z,63.18
2023-10-31T00:57:51.891Z,63.48
2023-10-31T01:00:19.605Z,63.31
2023-10-31T01:02:46.848Z,63.38
2023-10-31T01:05:14.100Z,63.34
2023-10-31T01:07:41.266Z,63.31
2023-10-31T01:10:09.028Z,63.20
2023-10-31T01:12:36.116Z,63.16
2023-10-31T01:15:03.620Z,62.84
2023-10-31T01:17:31.379Z,62.96
2023-10-31T01:19:58.551Z,62.84
2023-10-31T01:22:25.742Z,63.02
2023-10-31T01:24:53.600Z,63.13
2023-10-31T01:27:20.642Z,63.25
2023-10-31T01:29:47.754Z,63.00
2023-10-31T01:32:21.919Z,62.91
2023-10-31T01:34:50.431Z,62.80
2023-10-31T01:37:20.380Z,63.39
2023-10-31T01:39:47.826Z,63.49
2023-10-31T01:42:16.352Z,63.76
2023-10-31T01:44:43.884Z,63.96
2023-10-31T01:47:11.201Z,64.34
2023-10-31T01:49:39.446Z,64.46
2023-10-31T01:52:07.875Z,64.40
2023-10-31T01:54:35.636Z,63.98
2023-10-31T01:57:05.841Z,63.85
2023-10-31T01:59:33.132Z,64.05
2023-10-31T02:02:02.189Z,64.48
2023-10-31T02:04:32.144Z,64.48
2023-10-31T02:06:59.285Z,64.74
2023-10-31T02:09:28.562Z,64.78
2023-10-31T02:11:56.298Z,64.90
2023-10-31T02:14:25.071Z,64.99
2023-10-31T02:16:52.706Z,65.17
2023-10-31T02:19:23.162Z,64.89
2023-10-31T02:21:50.347Z,65.05
2023-10-31T02:24:18.052Z,65.13
2023-10-31T02:26:45.234Z,64.99
2023-10-31T02:29:12.503Z,64.25
2023-10-31T02:31:39.896Z,64.45
2023-10-31T02:34:07.221Z,64.74
2023-10-31T02:36:35.045Z,65.16
2023-10-31T02:39:02.576Z,65.24
2023-10-31T02:41:29.674Z,65.15
2023-10-31T02:43:57.930Z,64.78
2023-10-31T02:46:25.202Z,64.82
2023-10-31T02:48:52.465Z,65.06
2023-10-31T02:51:21.006Z,65.02
2023-10-31T02:53:48.637Z,64.82
2023-10-31T02:56:15.844Z,64.73
2023-10-31T02:58:43.040Z,64.55
2023-10-31T03:01:10.250Z,64.21
2023-10-31T03:03:37.415Z,64.14
2023-10-31T03:06:06.744Z,63.78
2023-10-31T03:08:33.846Z,63.74
2023-10-31T03:11:01.036Z,63.30
2023-10-31T03:13:28.195Z,63.60
2023-10-31T03:15:55.278Z,63.80
2023-10-31T03:18:23.181Z,64.31
2023-10-31T03:20:50.366Z,64.03
2023-10-31T03:23:17.457Z,64.08
2023-10-31T03:25:44.669Z,64.07
2023-10-31T03:28:25.126Z,63.58
2023-10-31T03:30:52.633Z,63.93
2023-10-31T03:33:19.785Z,63.90
2023-10-31T03:35:47.787Z,63.82
2023-10-31T03:38:15.217Z,64.70
2023-10-31T03:40:42.846Z,64.87
2023-10-31T03:43:12.937Z,64.69
2023-10-31T03:45:40.321Z,65.04
2023-10-31T03:48:08.463Z,64.16
2023-10-31T03:50:35.755Z,64.52
2023-10-31T03:53:02.928Z,64.67
2023-10-31T03:55:31.384Z,64.45
2023-10-31T03:57:58.485Z,64.71
2023-10-31T04:00:25.718Z,65.50
2023-10-31T04:02:52.973Z,65.61
2023-10-31T04:05:20.271Z,65.68
2023-10-31T04:07:48.431Z,65.34
2023-10-31T04:10:15.710Z,66.12
2023-10-31T04:12:43.450Z,65.21
2023-10-31T04:15:11.226Z,65.00
2023-10-31T04:17:39.428Z,64.79
2023-10-31T04:20:07.810Z,64.95
2023-10-31T04:22:34.947Z,64.75
2023-10-31T04:25:02.118Z,64.76
2023-10-31T04:27:29.282Z,64.36
2023-10-31T04:29:56.373Z,64.55
2023-10-31T04:32:23.592Z,64.32
2023-10-31T04:34:50.851Z,64.38
2023-10-31T04:37:18.078Z,63.80
2023-10-31T04:39:45.325Z,64.16
2023-10-31T04:42:12.369Z,64.22
2023-10-31T04:44:39.520Z,64.15
2023-10-31T04:47:08.206Z,63.67
2023-10-31T04:49:38.549Z,63.59
2023-10-31T04:52:06.359Z,64.23
2023-10-31T04:54:33.466Z,64.28
2023-10-31T04:57:00.640Z,64.26
2023-10-31T04:59:27.716Z,63.96
2023-10-31T05:01:56.458Z,63.88
2023-10-31T05:04:23.842Z,63.74
2023-10-31T05:06:51.031Z,63.92
2023-10-31T05:09:19.225Z,63.63
2023-10-31T05:11:47.044Z,63.56
2023-10-31T05:14:14.168Z,63.48
2023-10-31T05:16:43.423Z,63.74
2023-10-31T05:19:12.180Z,63.34
2023-10-31T05:21:39.480Z,63.80
2023-10-31T05:24:07.801Z,63.77
2023-10-31T05:26:34.992Z,63.49
2023-10-31T05:29:02.254Z,63.19
2023-10-31T05:31:29.380Z,63.56
2023-10-31T05:33:56.519Z,62.96
2023-10-31T05:36:26.237Z,63.27
2023-10-31T05:38:53.510Z,62.87
2023-10-31T05:41:20.690Z,62.43
2023-10-31T05:43:47.896Z,62.38
2023-10-31T05:46:15.904Z,62.13
2023-10-31T05:48:46.749Z,61.90
2023-10-31T05:51:19.386Z,62.31
2023-10-31T05:53:48.778Z,62.46
2023-10-31T05:56:17.952Z,62.21
2023-10-31T05:58:45.282Z,62.21
2023-10-31T06:01:12.573Z,61.76
2023-10-31T06:03:44.780Z,61.50
2023-10-31T06:06:13.403Z,61.32
2023-10-31T06:08:42.175Z,61.05
2023-10-31T06:11:09.415Z,60.76
2023-10-31T06:13:36.502Z,60.70
2023-10-31T06:16:04.033Z,60.70
2023-10-31T06:18:31.146Z,59.19
2023-10-31T06:20:58.666Z,59.87
2023-10-31T06:23:25.837Z,59.66
2023-10-31T06:25:53.023Z,59.60
2023-10-31T06:28:20.113Z,58.66
2023-10-31T06:30:47.395Z,58.82
2023-10-31T06:33:14.529Z,58.37
2023-10-31T06:35:41.845Z,58.21
2023-10-31T06:38:09.113Z,58.26
2023-10-31T06:40:36.375Z,58.42
2023-10-31T06:43:03.854Z,58.28
2023-10-31T06:45:31.038Z,58.62
2023-10-31T06:47:58.176Z,59.16
2023-10-31T06:50:25.910Z,59.74
2023-10-31T06:52:53.173Z,59.52
2023-10-31T06:55:20.257Z,59.32
2023-10-31T06:57:47.511Z,59.54
2023-10-31T07:00:15.500Z,59.45
2023-10-31T07:02:42.915Z,58.65
2023-10-31T07:05:10.277Z,58.19
2023-10-31T07:07:38.210Z,57.59
2023-10-31T07:10:06.550Z,57.39
2023-10-31T07:12:33.714Z,56.94
2023-10-31T07:15:00.972Z,57.20
2023-10-31T07:17:28.254Z,57.39
2023-10-31T07:19:55.624Z,57.07
2023-10-31T07:22:25.562Z,57.41
2023-10-31T07:24:53.161Z,57.12
2023-10-31T07:27:20.305Z,56.99
2023-10-31T07:29:47.694Z,56.60
2023-10-31T07:32:15.012Z,56.60
2023-10-31T07:34:43.618Z,55.75
2023-10-31T07:37:10.778Z,54.98
2023-10-31T07:39:37.972Z,54.95
2023-10-31T07:42:05.633Z,54.37
2023-10-31T07:44:32.772Z,54.73
2023-10-31T07:46:59.985Z,54.00
2023-10-31T07:49:27.232Z,53.18
2023-10-31T07:51:54.338Z,52.92
2023-10-31T07:54:21.706Z,52.42
2023-10-31T07:56:48.939Z,52.30
2023-10-31T07:59:16.146Z,51.41
2023-10-31T08:01:43.349Z,51.80
2023-10-31T08:04:11.241Z,51.34
2023-10-31T08:06:38.571Z,50.85
2023-10-31T08:09:08.288Z,50.53
2023-10-31T08:11:36.706Z,50.70
2023-10-31T08:14:04.068Z,50.30
2023-10-31T08:16:31.365Z,49.92
2023-10-31T08:18:58.511Z,49.40
2023-10-31T08:21:25.637Z,49.54
2023-10-31T08:23:52.749Z,49.49
2023-10-31T08:26:20.352Z,49.88
2023-10-31T08:28:47.556Z,49.32
2023-10-31T08:31:14.839Z,48.83
2023-10-31T08:33:42.011Z,48.71
2023-10-31T08:36:10.052Z,48.75
2023-10-31T08:38:37.266Z,48.96
2023-10-31T08:41:04.958Z,48.81
2023-10-31T08:43:32.175Z,48.69
2023-10-31T08:45:59.363Z,48.61
2023-10-31T08:48:27.852Z,48.44
2023-10-31T08:50:55.010Z,47.88
2023-10-31T08:53:22.268Z,47.33
2023-10-31T08:55:49.557Z,47.50
2023-10-31T08:58:19.318Z,47.53
2023-10-31T09:00:46.519Z,46.64
2023-10-31T09:03:13.816Z,47.23
2023-10-31T09:05:41.873Z,47.46
2023-10-31T09:08:09.153Z,47.96
2023-10-31T09:10:40.929Z,47.33
2023-10-31T09:13:08.220Z,48.00
2023-10-31T09:15:35.483Z,48.82
2023-10-31T09:18:03.317Z,48.30
2023-10-31T09:20:31.401Z,48.00
2023-10-31T09:22:58.703Z,47.32
2023-10-31T09:25:25.969Z,48.21
2023-10-31T09:27:53.201Z,48.49
2023-10-31T09:30:20.699Z,49.00
2023-10-31T09:32:48.053Z,49.48
2023-10-31T09:35:16.010Z,50.12
2023-10-31T09:37:43.920Z,49.98
2023-10-31T09:40:11.821Z,50.52
2023-10-31T09:42:39.567Z,51.14
2023-10-31T09:45:07.755Z,51.26
2023-10-31T09:47:34.992Z,50.50
2023-10-31T09:50:02.434Z,51.51
2023-10-31T09:52:30.727Z,51.59
2023-10-31T09:54:58.716Z,51.26
2023-10-31T09:57:27.458Z,50.77
2023-10-31T09:59:56.549Z,50.25
2023-10-31T10:02:24.446Z,49.92
2023-10-31T10:04:51.878Z,49.23
2023-10-31T10:07:20.606Z,47.86
2023-10-31T10:09:48.064Z,47.24
2023-10-31T10:12:17.668Z,46.78
2023-10-31T10:14:48.325Z,46.51
2023-10-31T10:17:24.466Z,46.77
2023-10-31T10:20:12.601Z,46.63
2023-10-31T10:22:41.713Z,45.98
2023-10-31T10:25:15.300Z,46.14
2023-10-31T10:27:48.910Z,45.65
2023-10-31T10:30:17.639Z,45.50
2023-10-31T10:32:45.694Z,45.13
2023-10-31T10:35:12.957Z,45.57
2023-10-31T10:37:41.378Z,45.63
2023-10-31T10:40:12.002Z,46.03
2023-10-31T10:42:49.884Z,45.87
2023-10-31T10:45:19.127Z,45.54
2023-10-31T10:47:49.453Z,45.38
2023-10-31T10:50:21.064Z,45.30
2023-10-31T10:53:10.592Z,45.42
2023-10-31T10:55:46.669Z,45.82
2023-10-31T10:58:54.206Z,45.85
2023-10-31T11:01:21.868Z,45.05
2023-10-31T11:03:50.199Z,45.51
2023-10-31T11:06:17.668Z,45.85
2023-10-31T11:08:46.741Z,45.17
2023-10-31T11:11:17.150Z,44.35
2023-10-31T11:13:47.919Z,44.08
2023-10-31T11:16:23.871Z,42.05
2023-10-31T11:18:51.604Z,39.80
2023-10-31T11:21:19.039Z,40.06
2023-10-31T11:23:46.367Z,39.63
2023-10-31T11:26:13.899Z,39.17
2023-10-31T11:28:41.211Z,38.10
2023-10-31T11:31:10.128Z,38.43
2023-10-31T11:33:41.861Z,39.16
2023-10-31T11:36:09.758Z,40.55
2023-10-31T11:38:39.314Z,41.11
2023-10-31T11:41:07.416Z,41.76
2023-10-31T11:43:53.879Z,42.29
2023-10-31T11:46:26.434Z,43.03
2023-10-31T11:48:57.447Z,43.65
2023-10-31T11:51:25.554Z,44.36
2023-10-31T11:53:53.427Z,44.21
2023-10-31T11:56:21.986Z,44.05
2023-10-31T11:59:08.035Z,44.24
2023-10-31T12:01:35.651Z,44.91
2023-10-31T12:04:05.309Z,45.20
2023-10-31T12:06:33.403Z,45.34
2023-10-31T12:09:02.173Z,45.43
2023-10-31T12:11:29.622Z,45.31
2023-10-31T12:14:01.921Z,44.69
2023-10-31T12:16:35.056Z,45.29
2023-10-31T12:19:04.200Z,45.43
2023-10-31T12:21:49.042Z,44.98
2023-10-31T12:24:18.903Z,45.16
2023-10-31T12:26:47.532Z,45.38
2023-10-31T12:29:22.272Z,45.18
2023-10-31T12:31:53.120Z,45.09
2023-10-31T12:34:22.867Z,45.43
2023-10-31T12:36:53.683Z,45.16
2023-10-31T12:39:27.766Z,44.68
2023-10-31T12:41:56.061Z,44.91
2023-10-31T12:44:29.341Z,44.58
2023-10-31T12:46:57.777Z,45.04
2023-10-31T12:49:25.535Z,45.00
2023-10-31T12:52:06.516Z,45.32
2023-10-31T12:54:39.033Z,45.63
2023-10-31T12:57:08.395Z,45.94
2023-10-31T12:59:39.072Z,46.29
2023-10-31T13:02:07.722Z,46.18
2023-10-31T13:04:35.595Z,46.15
2023-10-31T13:07:10.045Z,46.52
2023-10-31T13:09:43.513Z,47.13
2023-10-31T13:12:14.027Z,47.14
2023-10-31T13:14:41.185Z,47.56
2023-10-31T13:17:08.607Z,47.75
2023-10-31T13:19:35.756Z,47.29
2023-10-31T13:22:02.811Z,47.59
2023-10-31T13:24:29.998Z,47.19
2023-10-31T13:26:57.366Z,46.68
2023-10-31T13:29:26.925Z,46.52
2023-10-31T13:31:54.446Z,46.48
2023-10-31T13:34:21.648Z,46.55
2023-10-31T13:36:51.301Z,46.27
2023-10-31T13:39:19.370Z,46.54
2023-10-31T13:41:47.963Z,46.66
2023-10-31T13:44:15.153Z,47.60
2023-10-31T13:46:42.307Z,48.46
2023-10-31T13:49:09.564Z,48.74
2023-10-31T13:51:37.116Z,49.51
2023-10-31T13:54:04.728Z,51.70
2023-10-31T13:56:33.281Z,52.84
2023-10-31T13:59:01.714Z,52.86
2023-10-31T14:01:30.004Z,53.20
2023-10-31T14:03:58.077Z,53.58
2023-10-31T14:06:31.127Z,53.33
2023-10-31T14:09:00.748Z,53.00
2023-10-31T14:11:28.184Z,51.54
2023-10-31T14:13:55.420Z,51.18
2023-10-31T14:16:22.673Z,49.93
2023-10-31T14:18:50.108Z,50.25
2023-10-31T14:21:17.219Z,50.70
2023-10-31T14:23:46.724Z,51.26
2023-10-31T14:26:14.204Z,51.19
2023-10-31T14:28:42.843Z,50.30
2023-10-31T14:31:11.778Z,49.72
2023-10-31T14:33:38.997Z,49.70
2023-10-31T14:36:06.882Z,49.86
2023-10-31T14:38:34.302Z,50.34
2023-10-31T14:41:01.558Z,50.39
2023-10-31T14:43:28.985Z,50.43
2023-10-31T14:45:56.889Z,50.63
2023-10-31T14:48:24.617Z,50.28
2023-10-31T14:50:51.841Z,49.89
2023-10-31T14:53:22.813Z,49.74
2023-10-31T14:55:50.173Z,50.08
2023-10-31T14:58:17.644Z,49.94
2023-10-31T15:00:45.342Z,49.77
2023-10-31T15:03:12.904Z,49.61
2023-10-31T15:05:40.453Z,49.83
2023-10-31T15:08:07.712Z,49.92
2023-10-31T15:10:36.381Z,49.97
2023-10-31T15:13:05.856Z,49.88
2023-10-31T15:15:33.417Z,49.94
2023-10-31T15:18:01.790Z,50.21
2023-10-31T15:20:29.268Z,50.08
2023-10-31T15:22:56.790Z,50.52
2023-10-31T15:25:24.055Z,50.85
2023-10-31T15:27:51.114Z,50.75
2023-10-31T15:30:18.738Z,50.75
2023-10-31T15:32:46.986Z,50.79
2023-10-31T15:35:14.660Z,51.09
2023-10-31T15:37:43.946Z,51.15
2023-10-31T15:40:12.308Z,51.41
2023-10-31T15:42:39.678Z,51.33
2023-10-31T15:45:10.614Z,51.12
2023-10-31T15:47:38.046Z,50.99
2023-10-31T15:50:06.308Z,50.90
2023-10-31T15:52:33.679Z,50.89
2023-10-31T15:55:00.885Z,50.90
2023-10-31T15:57:28.377Z,50.79
2023-10-31T15:59:55.759Z,50.71
2023-10-31T16:02:23.268Z,50.52
2023-10-31T16:04:50.524Z,50.58
2023-10-31T16:07:18.003Z,50.28
2023-10-31T16:09:45.366Z,50.24
2023-10-31T16:12:12.702Z,50.30
2023-10-31T16:14:40.053Z,50.26
2023-10-31T16:17:10.559Z,50.05
2023-10-31T16:19:37.795Z,50.36
2023-10-31T16:22:05.379Z,50.64
2023-10-31T16:24:32.907Z,50.40
2023-10-31T16:27:00.217Z,50.40
2023-10-31T16:29:27.367Z,50.48
2023-10-31T16:31:55.104Z,50.66
2023-10-31T16:34:25.148Z,50.28
2023-10-31T16:36:52.766Z,50.95
2023-10-31T16:39:20.191Z,50.70
2023-10-31T16:41:47.630Z,50.79
2023-10-31T16:44:14.823Z,50.83
2023-10-31T16:46:49.743Z,50.48
2023-10-31T16:49:18.829Z,51.02
2023-10-31T16:51:46.185Z,50.99
2023-10-31T16:54:16.568Z,51.31
2023-10-31T16:56:43.977Z,52.00
2023-10-31T16:59:11.317Z,51.65
2023-10-31T17:01:38.911Z,51.60
2023-10-31T17:04:06.968Z,51.55
2023-10-31T17:06:36.394Z,51.44
2023-10-31T17:09:03.797Z,51.75
2023-10-31T17:11:31.111Z,51.43
2023-10-31T17:13:59.318Z,52.31
2023-10-31T17:16:29.435Z,52.36
2023-10-31T17:18:56.863Z,53.05
2023-10-31T17:21:26.138Z,53.33
2023-10-31T17:23:53.229Z,53.52
2023-10-31T17:26:23.366Z,54.21
2023-10-31T17:28:52.080Z,53.97
2023-10-31T17:31:21.665Z,53.83
2023-10-31T17:33:50.858Z,54.01
2023-10-31T17:36:24.433Z,53.81
2023-10-31T17:38:51.815Z,53.95
2023-10-31T17:41:22.482Z,53.70
2023-10-31T17:43:50.352Z,53.83
2023-10-31T17:46:17.679Z,53.59
2023-10-31T17:48:46.696Z,53.54
2023-10-31T17:51:16.708Z,53.40
2023-10-31T17:53:45.046Z,53.74
2023-10-31T17:56:12.977Z,53.52
2023-10-31T17:58:41.070Z,53.50
2023-10-31T18:01:08.123Z,53.09
2023-10-31T18:03:35.904Z,52.89
2023-10-31T18:06:03.390Z,52.83
2023-10-31T18:08:30.820Z,52.60
2023-10-31T18:10:59.430Z,52.43
2023-10-31T18:13:26.690Z,52.20
2023-10-31T18:15:54.066Z,51.89
2023-10-31T18:18:21.491Z,52.20
2023-10-31T18:20:51.598Z,52.28
2023-10-31T18:23:18.924Z,52.26
2023-10-31T18:25:46.269Z,52.35
2023-10-31T18:28:13.520Z,52.11
2023-10-31T18:30:41.801Z,52.34
2023-10-31T18:33:09.249Z,51.85
2023-10-31T18:35:36.602Z,51.76
2023-10-31T18:38:04.340Z,51.99
2023-10-31T18:40:33.517Z,51.69
2023-10-31T18:43:00.626Z,51.79
2023-10-31T18:45:27.935Z,51.72
2023-10-31T18:47:55.320Z,51.71
2023-10-31T18:50:22.791Z,51.67
2023-10-31T18:52:50.049Z,51.80
2023-10-31T18:55:17.355Z,51.96
2023-10-31T18:57:45.153Z,51.28
2023-10-31T19:00:15.282Z,51.82
2023-10-31T19:02:42.631Z,51.56
2023-10-31T19:05:10.329Z,51.38
2023-10-31T19:07:40.396Z,51.13
2023-10-31T19:10:10.881Z,51.23
2023-10-31T19:12:38.622Z,51.38
2023-10-31T19:15:06.692Z,51.27
2023-10-31T19:17:33.909Z,51.27
2023-10-31T19:20:01.444Z,50.83
2023-10-31T19:22:29.056Z,51.35
2023-10-31T19:24:56.518Z,51.18
2023-10-31T19:27:24.321Z,50.77
2023-10-31T19:29:51.623Z,50.52
2023-10-31T19:32:18.830Z,50.65
2023-10-31T19:34:46.004Z,50.66
2023-10-31T19:37:13.376Z,50.51
2023-10-31T19:39:40.923Z,50.72
2023-10-31T19:42:08.862Z,50.68
2023-10-31T19:44:42.343Z,50.61
2023-10-31T19:47:11.347Z,50.79
2023-10-31T19:49:48.271Z,50.89
2023-10-31T19:52:15.488Z,50.57
2023-10-31T19:54:43.090Z,50.66
2023-10-31T19:57:10.520Z,50.76
2023-10-31T19:59:40.519Z,50.83
2023-10-31T20:02:07.988Z,50.72
2023-10-31T20:04:37.022Z,50.89
2023-10-31T20:07:04.868Z,50.70
2023-10-31T20:09:32.032Z,51.35
2023-10-31T20:11:59.240Z,51.03
2023-10-31T20:14:26.435Z,51.40
2023-10-31T20:16:54.112Z,51.31
2023-10-31T20:19:21.728Z,51.29
2023-10-31T20:21:49.001Z,51.53
2023-10-31T20:24:16.560Z,51.46
2023-10-31T20:26:43.899Z,51.21
2023-10-31T20:29:16.814Z,51.04
2023-10-31T20:31:44.181Z,50.87
2023-10-31T20:34:11.313Z,51.02
2023-10-31T20:36:43.017Z,51.01
2023-10-31T20:39:12.208Z,50.97
2023-10-31T20:41:39.481Z,51.33
2023-10-31T20:44:07.015Z,51.08
2023-10-31T20:46:34.254Z,51.13
2023-10-31T20:49:07.348Z,51.33
2023-10-31T20:51:34.731Z,51.30
2023-10-31T20:54:01.992Z,50.88
2023-10-31T20:56:29.880Z,50.75
2023-10-31T20:58:57.906Z,50.74
2023-10-31T21:01:27.768Z,51.09
2023-10-31T21:03:55.014Z,51.17
2023-10-31T21:06:23.374Z,51.54
2023-10-31T21:08:50.580Z,51.27
2023-10-31T21:11:19.887Z,51.26
2023-10-31T21:13:47.378Z,51.38
2023-10-31T21:16:14.684Z,51.59
2023-10-31T21:18:41.850Z,51.69
2023-10-31T21:21:08.950Z,51.77
2023-10-31T21:23:36.253Z,51.71
2023-10-31T21:26:03.696Z,51.63
2023-10-31T21:28:32.595Z,51.48
2023-10-31T21:30:59.828Z,51.75
2023-10-31T21:33:27.959Z,51.94
2023-10-31T21:35:55.345Z,52.02
2023-10-31T21:38:22.863Z,52.04
2023-10-31T21:40:50.050Z,51.98
2023-10-31T21:43:17.559Z,52.18
2023-10-31T21:45:44.755Z,52.37
2023-10-31T21:48:11.943Z,52.60
2023-10-31T21:50:39.170Z,52.62
2023-10-31T21:53:06.529Z,52.78
2023-10-31T21:55:33.832Z,52.69
2023-10-31T21:58:01.988Z,52.69
2023-10-31T22:00:29.369Z,52.51
2023-10-31T22:02:56.747Z,52.54
2023-10-31T22:05:24.506Z,52.81
2023-10-31T22:07:51.905Z,53.29
2023-10-31T22:10:19.214Z,53.20
2023-10-31T22:12:46.523Z,53.29
2023-10-31T22:15:13.872Z,53.24
2023-10-31T22:17:41.099Z,53.21
2023-10-31T22:20:09.191Z,53.08
2023-10-31T22:22:36.634Z,53.40
2023-10-31T22:25:04.314Z,53.15
2023-10-31T22:27:31.640Z,53.32
2023-10-31T22:29:59.013Z,53.54
2023-10-31T22:32:26.410Z,53.56
2023-10-31T22:34:53.835Z,53.52
2023-10-31T22:37:21.205Z,53.81
2023-10-31T22:39:48.884Z,53.86
2023-10-31T22:42:16.074Z,53.87
2023-10-31T22:44:44.353Z,54.12
2023-10-31T22:47:11.785Z,54.33
2023-10-31T22:49:39.031Z,54.34
2023-10-31T22:52:06.414Z,54.22
2023-10-31T22:54:33.557Z,54.40
2023-10-31T22:57:00.798Z,54.64
2023-10-31T22:59:34.082Z,54.26
2023-10-31T23:02:01.293Z,54.07
2023-10-31T23:04:29.346Z,54.35
2023-10-31T23:06:56.573Z,54.12
2023-10-31T23:09:23.949Z,54.14
2023-10-31T23:11:51.143Z,53.93
2023-10-31T23:14:18.592Z,53.82
2023-10-31T23:16:45.743Z,53.73
2023-10-31T23:19:12.910Z,53.81
2023-10-31T23:21:40.431Z,53.79
2023-10-31T23:24:09.161Z,54.01
2023-10-31T23:26:36.324Z,53.64
2023-10-31T23:29:03.684Z,53.33
2023-10-31T23:31:31.318Z,53.49
2023-10-31T23:33:58.513Z,53.28
2023-10-31T23:36:28.195Z,53.36
2023-10-31T23:38:55.430Z,53.34
2023-10-31T23:41:22.607Z,53.53
2023-10-31T23:43:49.901Z,53.16
2023-10-31T23:46:17.147Z,53.21
2023-10-31T23:48:44.380Z,53.24
2023-10-31T23:51:11.497Z,53.03
2023-10-31T23:53:38.718Z,52.97
2023-10-31T23:56:06.704Z,52.87
2023-10-31T23:58:35.457Z,53.12
